Time;durP1;ratioP1;P1;durP2;ratioP2;P2;SDS_P1;SDS_P2;PMS_P1;PMS_P2;Temp;Humidity;BMP_temperature;BMP_pressure;BME280_temperature;BME280_humidity;BME280_pressure;Samples;Min_cycle;Max_cycle;Signal;HPM_P1;HPM_P2
2022/10/07 00:01:51;;;;;;;20.72;8.38;;;;;;;4.94;78.83;101707.32;1996497;88;21129;-80
2022/10/07 00:04:52;;;;;;;23.25;9.20;;;;;;;4.92;78.95;101710.50;1993522;88;21540;-81
2022/10/07 00:07:54;;;;;;;15.25;8.63;;;;;;;4.90;79.30;101703.20;1994149;88;21054;-82
2022/10/07 00:10:55;;;;;;;13.85;8.05;;;;;;;4.86;79.40;101699.04;2000610;88;21513;-82
2022/10/07 00:14:01;;;;;;;14.60;6.90;;;;;;;4.85;79.37;101701.30;1991944;88;21636;-80
2022/10/07 00:17:02;;;;;;;11.70;7.05;;;;;;;4.84;79.17;101709.27;1987048;88;21525;-79
2022/10/07 00:20:04;;;;;;;;;;;;;;;4.81;79.16;101707.66;1987235;88;21071;-80
2022/10/07 00:23:06;;;;;;;14.80;6.72;;;;;;;4.79;78.95;101699.05;1989853;88;20428;-79
2022/10/07 00:26:11;;;;;;;19.07;7.87;;;;;;;4.74;78.71;101702.88;1980498;88;21533;-81
2022/10/07 00:29:12;;;;;;;13.62;7.22;;;;;;;4.68;78.75;101705.40;1983289;88;21042;-80
2022/10/07 00:32:13;;;;;;;15.13;6.90;;;;;;;4.62;78.89;101709.70;1980922;88;21050;-82
2022/10/07 00:35:14;;;;;;;14.35;7.90;;;;;;;4.53;78.71;101702.34;1985597;88;21057;-80
2022/10/07 00:38:16;;;;;;;17.82;7.25;;;;;;;4.46;79.07;101701.37;1986345;88;21526;-79
2022/10/07 00:41:20;;;;;;;;;;;;;;;4.43;78.90;101694.98;1987911;88;21078;-82
2022/10/07 00:44:38;;;;;;;16.37;7.12;;;;;;;4.43;79.36;101692.83;1960237;89;20188;-79
2022/10/07 00:47:46;;;;;;;12.75;6.70;;;;;;;4.37;79.11;101695.34;1983780;88;21061;-81
2022/10/07 00:50:50;;;;;;;12.03;7.10;;;;;;;4.28;78.62;101695.88;1984100;88;21076;-84
2022/10/07 00:53:54;;;;;;;19.80;7.67;;;;;;;4.24;78.70;101690.41;1981094;88;21041;-83
2022/10/07 00:56:57;;;;;;;26.97;8.98;;;;;;;4.25;78.73;101692.09;1982298;88;21027;-84
2022/10/07 00:59:58;;;;;;;18.30;7.92;;;;;;;4.18;79.00;101683.72;1984427;88;21061;-80
2022/10/07 01:03:00;;;;;;;21.27;9.30;;;;;;;4.16;79.02;101683.42;1984375;88;21054;-83
2022/10/07 01:06:05;;;;;;;16.42;8.05;;;;;;;4.10;79.00;101683.30;1985553;88;21010;-84
2022/10/07 01:09:07;;;;;;;18.12;7.58;;;;;;;4.12;79.14;101677.98;1985166;88;21079;-83
2022/10/07 01:12:14;;;;;;;15.08;7.62;;;;;;;4.08;78.92;101684.33;1959685;89;21052;-80
2022/10/07 01:15:24;;;;;;;14.20;8.10;;;;;;;4.06;78.75;101678.33;1997240;88;21120;-85
2022/10/07 01:18:37;;;;;;;20.20;8.23;;;;;;;4.02;78.91;101675.84;2033457;86;21006;-83
2022/10/07 01:22:04;;;;;;;16.77;7.85;;;;;;;4.01;78.92;101675.48;2018063;86;22388;-82
2022/10/07 01:25:48;;;;;;;18.70;8.08;;;;;;;4.00;78.95;101666.39;2033527;86;21696;-82
2022/10/07 01:28:57;;;;;;;21.80;10.43;;;;;;;3.93;78.60;101669.81;2031083;86;21068;-80
2022/10/07 01:32:23;;;;;;;19.45;8.40;;;;;;;3.92;78.95;101668.59;2031736;86;21045;-81
2022/10/07 01:35:31;;;;;;;16.67;8.50;;;;;;;3.92;78.87;101659.41;2029062;86;21027;-78
2022/10/07 01:38:34;;;;;;;22.87;9.95;;;;;;;3.87;78.86;101663.59;2034211;86;21049;-81
2022/10/07 01:41:38;;;;;;;19.92;9.15;;;;;;;3.82;79.24;101655.95;2036361;86;21546;-83
2022/10/07 01:44:40;;;;;;;21.50;9.75;;;;;;;3.73;79.45;101649.92;2038395;86;21477;-81
2022/10/07 01:47:41;;;;;;;31.45;11.45;;;;;;;3.69;79.54;101649.72;2031794;86;21061;-80
2022/10/07 01:50:43;;;;;;;19.65;10.53;;;;;;;3.63;79.66;101651.81;2032898;86;21496;-81
2022/10/07 01:54:08;;;;;;;16.27;8.50;;;;;;;3.58;79.70;101646.38;2029686;86;21006;-81
2022/10/07 01:57:33;;;;;;;29.00;9.48;;;;;;;3.56;79.56;101641.66;2028990;86;21045;-82
2022/10/07 02:00:40;;;;;;;15.08;7.78;;;;;;;3.57;79.79;101644.66;2028913;86;21048;-82
2022/10/07 02:03:49;;;;;;;20.62;10.25;;;;;;;3.56;79.80;101639.03;2036327;86;21335;-80
2022/10/07 02:07:05;;;;;;;24.00;10.05;;;;;;;3.53;79.56;101640.52;2032750;86;21045;-79
2022/10/07 02:10:30;;;;;;;21.55;9.70;;;;;;;3.50;79.70;101635.44;2029411;86;21098;-82
2022/10/07 02:13:43;;;;;;;13.18;9.08;;;;;;;3.44;79.74;101627.91;2019180;86;21060;-84
2022/10/07 02:16:48;;;;;;;17.60;8.25;;;;;;;3.42;79.76;101623.67;1991793;87;20997;-82
2022/10/07 02:19:55;;;;;;;32.58;10.38;;;;;;;3.38;79.62;101624.31;1995698;88;21040;-83
2022/10/07 02:23:01;;;;;;;21.27;10.10;;;;;;;3.35;79.60;101632.33;1991312;88;21059;-81
2022/10/07 02:26:05;;;;;;;49.58;10.28;;;;;;;3.34;79.63;101634.58;1990602;88;21070;-82
2022/10/07 02:29:09;;;;;;;33.65;10.80;;;;;;;3.31;79.83;101624.25;1993166;88;21511;-81
2022/10/07 02:32:16;;;;;;;21.93;9.58;;;;;;;3.26;79.88;101625.80;1988235;88;21008;-83
2022/10/07 02:35:30;;;;;;;26.93;10.15;;;;;;;3.22;79.84;101626.06;1990364;88;21058;-84
2022/10/07 02:38:32;;;;;;;22.17;10.78;;;;;;;3.24;79.93;101616.31;1990472;88;21076;-82
2022/10/07 02:41:42;;;;;;;32.83;10.23;;;;;;;3.22;79.80;101621.66;1991861;88;21036;-84
2022/10/07 02:45:15;;;;;;;21.12;10.25;;;;;;;3.16;79.86;101614.59;1992087;88;21081;-81
2022/10/07 02:48:25;;;;;;;;;;;;;;;3.13;79.92;101615.14;1996652;88;21499;-82
2022/10/07 02:51:38;;;;;;;41.02;11.50;;;;;;;3.11;80.09;101624.02;1989154;88;20137;-83
2022/10/07 02:55:02;;;;;;;32.90;10.18;;;;;;;3.09;80.48;101612.75;1990598;88;21076;-80
2022/10/07 02:58:06;;;;;;;54.83;11.33;;;;;;;3.06;80.28;101613.75;1988871;88;21079;-82
2022/10/07 03:01:10;;;;;;;39.70;11.55;;;;;;;3.04;80.53;101614.33;1992869;88;21101;-82
2022/10/07 03:04:12;;;;;;;30.37;10.23;;;;;;;3.03;80.62;101613.08;1966314;88;21051;-81
2022/10/07 03:07:13;;;;;;;23.80;10.00;;;;;;;3.02;80.39;101604.84;1988349;88;20961;-82
2022/10/07 03:10:15;;;;;;;18.07;9.50;;;;;;;2.96;80.27;101600.77;1986320;88;21105;-82
2022/10/07 03:13:17;;;;;;;19.87;11.00;;;;;;;2.95;80.34;101598.22;1966028;87;21097;-82
2022/10/07 03:16:20;;;;;;;27.45;10.38;;;;;;;2.92;80.23;101596.60;2020571;87;21584;-81
2022/10/07 03:19:22;;;;;;;31.23;10.82;;;;;;;2.91;80.26;101601.48;2019295;87;21014;-82
2022/10/07 03:22:25;;;;;;;14.18;8.80;;;;;;;2.87;80.29;101598.17;2018582;87;21053;-83
2022/10/07 03:25:26;;;;;;;14.60;9.23;;;;;;;2.88;80.36;101606.88;1984159;89;21112;-83
2022/10/07 03:28:32;;;;;;;21.95;9.00;;;;;;;2.86;80.36;101594.31;1988775;89;21632;-81
2022/10/07 03:31:33;;;;;;;16.07;9.40;;;;;;;2.81;80.33;101589.77;1940026;89;21129;-82
2022/10/07 03:34:34;;;;;;;30.50;10.45;;;;;;;2.79;80.31;101586.37;1964646;89;21060;-81
2022/10/07 03:37:36;;;;;;;28.70;10.43;;;;;;;2.75;80.25;101588.31;1961898;89;21668;-82
2022/10/07 03:40:38;;;;;;;22.35;9.73;;;;;;;2.66;80.29;101584.41;1960604;89;21069;-81
2022/10/07 03:43:40;;;;;;;22.20;8.78;;;;;;;2.63;80.33;101595.52;1959749;89;21026;-83
2022/10/07 03:46:41;;;;;;;25.05;9.93;;;;;;;2.63;80.35;101595.05;1961724;90;21106;-80
2022/10/07 03:49:44;;;;;;;27.48;12.05;;;;;;;2.63;80.38;101584.56;1955307;89;21503;-83
2022/10/07 03:52:45;;;;;;;31.55;16.30;;;;;;;2.61;80.30;101584.27;1962510;89;21079;-80
2022/10/07 03:55:47;;;;;;;49.08;26.42;;;;;;;2.54;80.04;101579.81;1961031;90;21044;-81
2022/10/07 03:58:48;;;;;;;47.70;24.82;;;;;;;2.50;80.27;101574.33;1963560;89;21119;-83
2022/10/07 04:01:50;;;;;;;43.17;22.90;;;;;;;2.49;80.28;101568.72;1958403;89;21051;-83
2022/10/07 04:04:51;;;;;;;30.65;17.75;;;;;;;2.42;79.99;101575.18;1960551;89;21568;-82
2022/10/07 04:07:53;;;;;;;22.15;13.03;;;;;;;2.35;80.24;101567.27;1957566;89;21608;-84
2022/10/07 04:10:56;;;;;;;21.45;12.55;;;;;;;2.28;80.39;101571.98;1956853;89;21041;-82
2022/10/07 04:13:59;;;;;;;18.73;11.53;;;;;;;2.28;80.70;101566.75;1965078;87;21052;-84
2022/10/07 04:17:00;;;;;;;21.87;9.93;;;;;;;2.29;80.72;101564.97;2000342;88;21025;-82
2022/10/07 04:20:02;;;;;;;16.77;10.03;;;;;;;2.31;80.72;101565.72;2002296;88;21618;-82
2022/10/07 04:23:03;;;;;;;23.40;10.28;;;;;;;2.32;80.62;101559.11;1995524;88;20983;-80
2022/10/07 04:26:11;;;;;;;18.27;9.93;;;;;;;2.29;80.71;101563.66;2000512;88;21076;-80
2022/10/07 04:29:14;;;;;;;15.60;9.25;;;;;;;2.27;80.77;101556.34;1998696;88;21105;-80
2022/10/07 04:32:16;;;;;;;16.62;9.18;;;;;;;2.21;80.67;101551.78;1999978;88;21059;-81
2022/10/07 04:35:21;;;;;;;19.50;9.98;;;;;;;2.18;80.53;101550.63;2000733;88;21124;-81
2022/10/07 04:38:23;;;;;;;12.98;8.70;;;;;;;2.17;80.76;101550.27;1997430;88;21058;-81
2022/10/07 04:41:24;;;;;;;20.40;11.88;;;;;;;2.17;80.68;101546.33;2003039;88;21091;-81
2022/10/07 04:44:25;;;;;;;17.77;10.53;;;;;;;2.15;80.77;101547.33;1999200;88;21478;-81
2022/10/07 04:47:28;;;;;;;18.75;9.60;;;;;;;2.09;80.88;101549.80;1997392;88;21059;-82
2022/10/07 04:50:32;;;;;;;36.15;16.80;;;;;;;2.05;80.80;101537.77;2000173;88;21045;-83
2022/10/07 04:53:35;;;;;;;26.00;13.78;;;;;;;2.02;81.03;101540.08;1993345;88;21086;-83
2022/10/07 04:56:37;;;;;;;24.23;13.05;;;;;;;2.03;81.22;101542.26;1992341;88;21086;-79
2022/10/07 04:59:40;;;;;;;35.58;14.15;;;;;;;2.05;81.37;101540.39;2001537;88;21068;-81
2022/10/07 05:02:43;;;;;;;29.23;14.07;;;;;;;2.08;81.61;101534.99;1999048;88;21006;-82
2022/10/07 05:05:47;;;;;;;35.85;16.75;;;;;;;2.13;81.46;101537.39;1997799;88;21552;-83
2022/10/07 05:08:51;;;;;;;29.15;14.25;;;;;;;2.18;81.59;101538.85;1997563;88;21015;-83
2022/10/07 05:11:54;;;;;;;44.88;13.80;;;;;;;2.21;81.36;101527.38;1999562;88;21007;-83
2022/10/07 05:14:55;;;;;;;18.57;10.60;;;;;;;2.21;81.22;101533.92;1995306;88;21066;-80
2022/10/07 05:17:56;;;;;;;21.68;11.83;;;;;;;2.21;81.43;101533.45;1983294;89;21590;-81
2022/10/07 05:20:58;;;;;;;18.57;9.55;;;;;;;2.25;81.23;101532.83;1955747;89;21083;-82
2022/10/07 05:23:59;;;;;;;18.73;9.75;;;;;;;2.35;81.62;101533.22;2002286;87;21130;-79
2022/10/07 05:27:03;;;;;;;18.87;9.65;;;;;;;2.49;81.51;101528.10;1973773;89;21068;-83
2022/10/07 05:30:05;;;;;;;19.35;9.30;;;;;;;2.66;81.55;101525.44;2000715;88;21539;-86
2022/10/07 05:33:09;;;;;;;19.73;9.45;;;;;;;2.96;81.78;101525.17;2004632;88;21107;-84
2022/10/07 05:36:11;;;;;;;19.07;9.03;;;;;;;3.29;81.74;101521.16;2005120;88;21036;-81
2022/10/07 05:39:13;;;;;;;19.57;9.70;;;;;;;3.64;81.55;101523.59;1986579;89;21052;-85
2022/10/07 05:42:16;;;;;;;15.23;9.00;;;;;;;4.03;81.52;101519.96;1995172;88;21124;-84
2022/10/07 05:45:19;;;;;;;19.50;9.00;;;;;;;4.43;81.25;101516.73;1997262;88;21047;-84
2022/10/07 05:48:20;;;;;;;15.78;9.75;;;;;;;4.83;81.13;101517.75;1999516;88;21057;-84
2022/10/07 05:51:24;;;;;;;21.37;12.43;;;;;;;5.20;80.79;101513.27;2004279;88;21089;-84
2022/10/07 05:54:26;;;;;;;23.45;12.00;;;;;;;5.57;80.56;101519.16;1997536;88;21035;-81
2022/10/07 05:57:28;;;;;;;21.52;11.78;;;;;;;5.99;80.38;101515.14;1999692;88;21122;-85
2022/10/07 06:00:29;;;;;;;19.12;12.53;;;;;;;6.45;80.45;101508.07;1959601;89;21536;-81
2022/10/07 06:03:30;;;;;;;20.62;12.58;;;;;;;6.91;79.85;101510.11;1984610;89;21641;-80
2022/10/07 06:06:34;;;;;;;16.40;11.10;;;;;;;7.31;79.60;101501.95;1960024;89;21165;-83
2022/10/07 06:13:09;;;;;;;18.95;12.30;;;;;;;7.95;78.51;101491.89;1959265;89;21627;-81
2022/10/07 06:16:12;;;;;;;21.40;13.32;;;;;;;8.34;78.10;101492.45;1971430;89;21037;-85
2022/10/07 06:19:21;;;;;;;27.73;12.60;;;;;;;8.88;78.35;101498.84;1971783;89;21576;-81
2022/10/07 06:22:16;;;;;;;20.70;11.95;;;;;;;9.31;77.50;101498.88;1984051;88;21061;-81
2022/10/07 06:25:17;;;;;;;17.48;12.00;;;;;;;9.55;76.83;101499.17;1982195;88;21065;-82
2022/10/07 06:28:19;;;;;;;20.82;12.47;;;;;;;9.72;76.09;101499.94;1986521;88;21094;-81
2022/10/07 06:31:23;;;;;;;16.12;12.10;;;;;;;9.87;76.15;101493.83;1980162;88;21093;-82
2022/10/07 06:34:24;;;;;;;20.02;11.85;;;;;;;10.14;76.24;101489.84;1981262;88;21104;-83
2022/10/07 06:37:25;;;;;;;18.10;12.05;;;;;;;10.66;75.35;101469.44;1985590;88;21090;-84
2022/10/07 06:40:26;;;;;;;18.27;11.35;;;;;;;10.66;75.35;101469.44;1962076;88;21018;-83
2022/10/07 06:43:30;;;;;;;18.15;12.15;;;;;;;11.13;75.67;101488.30;1979449;88;21122;-82
2022/10/07 06:46:39;;;;;;;16.15;11.55;;;;;;;11.62;75.35;101479.38;1984117;88;21114;-85
2022/10/07 06:49:40;;;;;;;17.87;10.85;;;;;;;11.97;74.58;101480.66;1981720;88;20986;-84
2022/10/07 06:52:42;;;;;;;15.98;11.45;;;;;;;12.25;74.45;101486.06;1985201;88;21088;-84
2022/10/07 06:55:44;;;;;;;13.65;10.60;;;;;;;12.39;73.20;101486.92;1984991;88;21045;-83
2022/10/07 06:58:48;;;;;;;15.38;10.90;;;;;;;12.43;72.96;101482.14;1984535;88;21136;-86
2022/10/07 07:01:51;;;;;;;24.20;11.95;;;;;;;12.37;72.44;101489.38;2001202;87;21024;-85
2022/10/07 07:04:53;;;;;;;13.95;11.15;;;;;;;12.43;72.60;101484.30;1997312;87;21588;-87
2022/10/07 07:07:56;;;;;;;14.05;10.23;;;;;;;12.65;73.24;101475.61;1996421;87;21777;-84
2022/10/07 07:11:34;;;;;;;15.45;10.25;;;;;;;12.96;72.81;101483.64;1995833;87;21084;-84
2022/10/07 07:14:11;;;;;;;14.43;9.93;;;;;;;13.27;72.57;101487.34;1997659;87;21049;-86
2022/10/07 07:17:13;;;;;;;14.47;9.93;;;;;;;13.53;72.20;101479.41;1974798;87;21524;-80
2022/10/07 07:20:15;;;;;;;17.80;11.18;;;;;;;13.63;71.19;101476.69;1997935;87;21079;-80
2022/10/07 07:23:17;;;;;;;14.07;10.30;;;;;;;13.82;71.27;101476.48;1996212;87;21065;-83
2022/10/07 07:26:19;;;;;;;12.55;9.48;;;;;;;14.05;71.12;101470.64;1998385;87;21089;-83
2022/10/07 07:29:22;;;;;;;13.95;9.05;;;;;;;14.27;71.17;101464.77;2009470;86;21100;-83
2022/10/07 07:32:25;;;;;;;9.80;8.78;;;;;;;14.64;70.77;101464.16;2028691;86;21036;-83
2022/10/07 07:35:32;;;;;;;10.10;7.70;;;;;;;15.05;70.48;101459.80;2032428;86;21537;-82
2022/10/07 07:38:33;;;;;;;10.10;8.13;;;;;;;15.39;69.74;101454.84;2036108;86;20986;-83
2022/10/07 07:41:40;;;;;;;10.60;7.47;;;;;;;15.36;69.46;101455.17;2036595;86;21086;-83
2022/10/07 07:44:41;;;;;;;11.78;8.23;;;;;;;15.45;68.46;101454.17;2027510;86;21039;-83
2022/10/07 07:47:48;;;;;;;11.95;7.60;;;;;;;15.57;69.17;101455.53;2024256;86;21073;-84
2022/10/07 07:50:47;;;;;;;11.28;7.45;;;;;;;15.99;68.59;101452.33;2033916;86;21075;-83
2022/10/07 07:53:49;;;;;;;14.65;7.75;;;;;;;16.06;67.42;101450.16;2037667;86;21089;-85
2022/10/07 07:56:50;;;;;;;12.90;8.05;;;;;;;16.04;67.68;101449.48;1997769;88;21016;-84
2022/10/07 07:59:54;;;;;;;10.25;7.58;;;;;;;16.14;67.49;101448.80;2004915;87;21050;-86
2022/10/07 08:02:55;;;;;;;15.15;8.40;;;;;;;16.39;66.88;101438.50;2005560;88;20999;-83
2022/10/07 08:06:01;;;;;;;12.13;7.75;;;;;;;16.45;67.17;101437.84;1996863;87;21099;-88
2022/10/07 08:09:02;;;;;;;12.73;7.45;;;;;;;16.52;66.07;101432.94;2031731;86;21046;-83
2022/10/07 08:12:05;;;;;;;9.68;7.42;;;;;;;16.46;64.80;101431.46;2030057;86;21521;-86
2022/10/07 08:15:09;;;;;;;9.68;7.00;;;;;;;16.28;66.06;101424.50;2034418;86;21515;-86
2022/10/07 08:18:11;;;;;;;11.18;8.10;;;;;;;16.14;65.40;101422.53;2028644;86;21584;-86
2022/10/07 08:21:17;;;;;;;14.38;7.83;;;;;;;16.05;66.23;101421.72;2032372;86;21069;-83
2022/10/07 08:24:18;;;;;;;10.85;7.78;;;;;;;16.38;66.30;101413.57;2033359;86;21469;-83
2022/10/07 08:27:20;;;;;;;8.23;6.33;;;;;;;16.70;66.40;101417.97;2025162;86;21038;-86
2022/10/07 08:30:22;;;;;;;11.90;6.95;;;;;;;16.88;65.20;101411.02;2033974;86;21102;-86
2022/10/07 08:33:23;;;;;;;10.45;6.37;;;;;;;16.78;65.44;101411.73;2019302;86;21098;-87
2022/10/07 08:36:27;;;;;;;14.90;6.58;;;;;;;16.52;64.39;101406.14;2035540;86;21090;-83
2022/10/07 08:39:29;;;;;;;9.58;6.10;;;;;;;16.11;64.44;101400.95;2036213;86;21032;-85
2022/10/07 08:42:40;;;;;;;10.32;5.92;;;;;;;16.07;64.99;101392.92;2040012;86;20994;-86
2022/10/07 08:45:41;;;;;;;9.25;6.05;;;;;;;16.01;64.70;101390.09;2033628;86;21013;-84
2022/10/07 08:49:02;;;;;;;13.00;6.47;;;;;;;16.01;65.00;101381.56;2030294;86;21051;-83
2022/10/07 08:52:07;;;;;;;;;;;;;;;16.05;63.86;101380.70;2032914;86;21041;-81
2022/10/07 08:55:36;;;;;;;10.18;6.35;;;;;;;16.38;64.83;101383.28;2035227;86;20161;-82
2022/10/07 08:58:49;;;;;;;10.20;6.45;;;;;;;16.43;64.80;101378.23;2029864;86;21065;-85
2022/10/07 09:02:41;;;;;;;12.15;6.70;;;;;;;16.55;64.77;101374.98;2033712;86;21052;-85
2022/10/07 09:05:46;;;;;;;10.93;6.25;;;;;;;16.69;63.75;101376.59;2026695;86;21062;-82
2022/10/07 09:08:51;;;;;;;10.88;6.37;;;;;;;16.91;64.19;101367.77;2035079;86;21077;-83
2022/10/07 09:11:55;;;;;;;11.88;5.83;;;;;;;17.07;63.20;101365.49;2035454;86;21650;-79
2022/10/07 09:14:59;;;;;;;11.80;6.30;;;;;;;17.11;63.62;101359.25;2031483;86;21009;-81
2022/10/07 09:18:12;;;;;;;9.25;5.25;;;;;;;17.01;61.95;101357.66;2045254;85;21420;-83
2022/10/07 09:21:22;;;;;;;12.75;7.25;;;;;;;17.19;61.60;101355.17;2045448;85;21081;-81
2022/10/07 09:24:27;;;;;;;15.10;7.78;;;;;;;17.29;61.81;101350.88;2050464;85;21021;-85
2022/10/07 09:27:29;;;;;;;12.80;6.87;;;;;;;17.40;61.88;101345.09;2048785;85;21142;-85
2022/10/07 09:30:31;;;;;;;10.20;5.85;;;;;;;17.56;61.65;101337.40;2047220;85;21042;-84
2022/10/07 09:33:38;;;;;;;14.47;6.37;;;;;;;17.70;61.14;101333.89;2041831;85;21048;-81
2022/10/07 09:37:18;;;;;;;8.95;5.67;;;;;;;17.62;61.59;101328.61;2051050;85;21555;-83
2022/10/07 09:40:33;;;;;;;15.60;6.20;;;;;;;17.70;61.30;101324.50;2046994;85;21485;-81
2022/10/07 09:43:35;;;;;;;10.55;6.30;;;;;;;17.77;60.62;101321.42;2047069;85;22009;-85
2022/10/07 09:46:56;;;;;;;12.35;6.17;;;;;;;17.88;59.45;101318.30;2044202;85;21830;-81
2022/10/07 09:50:02;;;;;;;11.93;6.05;;;;;;;18.02;59.78;101314.44;2047799;85;21057;-83
2022/10/07 09:53:01;;;;;;;13.20;5.92;;;;;;;17.96;59.30;101298.55;2050933;85;21483;-82
2022/10/07 09:56:02;;;;;;;12.00;6.17;;;;;;;17.85;59.01;101302.57;2045670;85;21480;-82
2022/10/07 09:59:25;;;;;;;8.68;5.95;;;;;;;17.94;59.97;101295.77;2049768;85;21575;-82
2022/10/07 10:02:27;;;;;;;11.53;6.22;;;;;;;17.91;59.49;101283.55;2047837;85;21065;-83
2022/10/07 10:05:33;;;;;;;13.55;6.28;;;;;;;17.61;58.90;101284.02;2047043;85;21068;-85
2022/10/07 10:08:41;;;;;;;16.50;5.97;;;;;;;17.68;59.76;101280.91;2046104;85;21020;-82
2022/10/07 10:11:43;;;;;;;14.75;6.65;;;;;;;17.91;59.69;101279.52;2047326;85;21080;-82
2022/10/07 10:14:57;;;;;;;16.12;6.75;;;;;;;17.98;59.13;101271.02;2049255;85;21072;-85
2022/10/07 10:17:58;;;;;;;9.65;5.35;;;;;;;18.11;59.32;101267.67;2034083;86;21526;-82
2022/10/07 10:21:29;;;;;;;10.10;5.55;;;;;;;18.01;59.40;101265.27;2032474;86;21145;-84
2022/10/07 10:28:16;;;;;;;8.88;5.50;;;;;;;18.03;59.81;101253.84;2030641;86;21022;-83
2022/10/07 10:31:47;;;;;;;12.53;5.58;;;;;;;18.34;59.13;101248.20;2022074;86;21071;-83
2022/10/07 10:34:59;;;;;;;7.47;4.42;;;;;;;18.43;59.24;101239.50;2032655;86;21077;-81
2022/10/07 10:38:39;;;;;;;10.80;5.12;;;;;;;18.84;58.67;101236.69;2025729;86;21097;-82
2022/10/07 10:41:56;;;;;;;7.40;4.67;;;;;;;18.90;58.92;101239.45;2008581;86;21708;-82
2022/10/07 10:45:17;;;;;;;10.48;4.37;;;;;;;19.08;58.87;101225.52;2031964;86;21551;-85
2022/10/07 10:48:40;;;;;;;10.30;5.53;;;;;;;19.15;56.59;101214.83;2033732;86;20986;-83
2022/10/07 10:52:10;;;;;;;7.08;3.90;;;;;;;18.95;57.37;101207.92;2031589;86;21069;-86
2022/10/07 10:55:23;;;;;;;5.70;3.98;;;;;;;18.93;57.41;101204.11;2027598;85;21064;-87
2022/10/07 10:58:52;;;;;;;9.18;3.85;;;;;;;18.88;55.72;101202.51;2029789;86;21096;-83
2022/10/07 11:02:08;;;;;;;8.33;3.98;;;;;;;18.83;57.03;101196.88;2035887;86;21544;-84
2022/10/07 11:05:27;;;;;;;11.95;4.30;;;;;;;18.98;57.53;101179.33;2026564;86;21367;-84
2022/10/07 11:08:33;;;;;;;10.25;4.65;;;;;;;19.07;56.28;101172.77;2031084;86;21529;-83
2022/10/07 11:11:35;;;;;;;8.10;3.90;;;;;;;19.04;56.71;101173.16;2034117;85;21082;-84
2022/10/07 11:14:44;;;;;;;5.33;3.45;;;;;;;19.25;56.69;101174.41;2031675;86;21073;-85
2022/10/07 11:17:48;;;;;;;7.12;3.83;;;;;;;19.40;56.15;101158.16;2040743;85;21081;-85
2022/10/07 11:20:50;;;;;;;5.10;3.62;;;;;;;19.42;55.90;101149.34;2045039;85;21013;-85
2022/10/07 11:24:19;;;;;;;8.15;3.95;;;;;;;19.47;55.70;101141.51;2046141;85;21112;-85
2022/10/07 11:27:32;;;;;;;8.68;3.85;;;;;;;19.31;55.50;101139.15;2045199;85;21088;-86
2022/10/07 11:30:51;;;;;;;8.90;3.72;;;;;;;19.37;56.19;101134.83;2049692;85;21057;-85
2022/10/07 11:34:17;;;;;;;6.78;3.40;;;;;;;19.51;55.70;101123.09;2046629;85;21547;-85
2022/10/07 11:37:44;;;;;;;6.42;3.55;;;;;;;19.70;56.25;101115.63;2045440;85;21018;-83
2022/10/07 11:40:51;;;;;;;7.65;3.83;;;;;;;19.80;54.58;101113.09;2048141;85;21048;-85
2022/10/07 11:43:58;;;;;;;11.20;3.55;;;;;;;19.75;55.17;101108.83;2047750;85;21089;-86
2022/10/07 11:47:03;;;;;;;7.58;3.72;;;;;;;19.75;54.86;101099.41;2048099;85;21025;-85
2022/10/07 11:50:34;;;;;;;6.90;3.85;;;;;;;19.73;55.40;101092.86;2049536;85;21076;-83
2022/10/07 11:53:38;;;;;;;8.88;3.60;;;;;;;19.86;54.69;101080.78;2052923;85;20978;-85
2022/10/07 11:56:56;;;;;;;11.97;3.77;;;;;;;19.93;54.62;101082.13;2048689;85;21568;-82
2022/10/07 12:00:07;;;;;;;5.85;3.27;;;;;;;19.89;54.83;101070.94;2048718;85;21005;-85
2022/10/07 12:03:26;;;;;;;6.28;3.52;;;;;;;19.84;54.84;101067.20;2044527;85;21049;-87
2022/10/07 12:06:27;;;;;;;13.18;4.37;;;;;;;19.85;55.04;101062.97;2050034;85;20984;-82
2022/10/07 12:10:05;;;;;;;8.15;3.55;;;;;;;20.01;54.72;101060.91;2006924;87;21475;-83
2022/10/07 12:13:14;;;;;;;6.92;3.47;;;;;;;20.02;54.42;101051.78;1984968;88;21093;-83
2022/10/07 12:16:33;;;;;;;7.50;3.95;;;;;;;19.81;54.04;101050.94;2016004;87;21121;-83
2022/10/07 12:19:34;;;;;;;7.65;3.42;;;;;;;19.80;54.78;101045.25;1995901;88;21093;-85
2022/10/07 12:22:35;;;;;;;9.73;4.42;;;;;;;19.91;55.03;101034.39;1998602;88;20994;-82
2022/10/07 12:25:40;;;;;;;6.15;3.85;;;;;;;19.76;55.01;101035.08;1995803;88;21063;-82
2022/10/07 12:28:47;;;;;;;6.45;3.67;;;;;;;19.68;55.42;101023.48;1999072;88;21059;-81
2022/10/07 12:31:49;;;;;;;21.50;5.08;;;;;;;19.74;55.21;101021.84;1994523;88;21029;-82
2022/10/07 12:34:50;;;;;;;8.33;4.00;;;;;;;19.80;55.56;101016.97;1999947;88;21044;-84
2022/10/07 12:38:01;;;;;;;9.98;4.67;;;;;;;19.83;55.66;101010.35;2005191;88;21014;-82
2022/10/07 12:41:17;;;;;;;7.10;3.37;;;;;;;19.78;55.31;101004.23;1999464;88;21101;-83
2022/10/07 12:44:39;;;;;;;5.30;3.83;;;;;;;19.72;55.33;101002.88;1981997;88;21094;-82
2022/10/07 12:47:41;;;;;;;8.58;3.60;;;;;;;19.54;55.24;100998.90;1993623;88;21073;-82
2022/10/07 12:50:45;;;;;;;4.45;3.65;;;;;;;19.50;55.77;100990.91;2000710;88;21537;-83
2022/10/07 12:53:49;;;;;;;6.85;3.98;;;;;;;19.44;55.59;100991.72;1976373;88;21472;-82
2022/10/07 12:56:51;;;;;;;7.25;3.83;;;;;;;19.28;55.61;100991.56;1996943;88;21071;-84
2022/10/07 13:00:15;;;;;;;10.13;5.58;;;;;;;19.31;56.34;100983.61;1997696;88;21049;-82
2022/10/07 13:04:10;;;;;;;6.40;4.30;;;;;;;19.42;56.48;100976.29;1994888;88;21022;-83
2022/10/07 13:07:38;;;;;;;14.58;5.97;;;;;;;19.47;56.21;100972.47;1899174;92;21078;-82
2022/10/07 13:10:46;;;;;;;6.62;4.60;;;;;;;19.58;56.39;100971.88;1904201;88;21552;-83
2022/10/07 13:14:13;;;;;;;8.03;4.35;;;;;;;19.57;55.93;100961.30;1999833;88;21615;-84
2022/10/07 13:17:38;;;;;;;12.60;4.15;;;;;;;19.53;56.33;100955.50;1996237;88;21028;-83
2022/10/07 13:21:25;;;;;;;9.93;4.33;;;;;;;19.53;56.69;100955.50;1964121;89;21045;-84
2022/10/07 13:24:28;;;;;;;6.20;4.03;;;;;;;19.43;56.88;100940.29;2006224;87;21061;-84
2022/10/07 13:27:33;;;;;;;6.25;4.67;;;;;;;19.40;57.45;100942.02;2007608;88;21080;-84
2022/10/07 13:30:39;;;;;;;7.00;4.35;;;;;;;19.44;57.56;100938.72;2006984;87;21074;-84
2022/10/07 13:33:43;;;;;;;7.45;3.95;;;;;;;19.39;57.39;100930.95;2010630;87;21039;-84
2022/10/07 13:36:44;;;;;;;7.08;3.98;;;;;;;19.25;57.44;100928.75;1970432;89;21500;-83
2022/10/07 13:39:45;;;;;;;6.22;3.83;;;;;;;19.17;57.89;100917.66;1983885;88;21109;-84
2022/10/07 13:42:55;;;;;;;9.93;4.30;;;;;;;19.29;57.92;100911.68;2003718;88;20982;-84
2022/10/07 13:45:58;;;;;;;8.70;4.80;;;;;;;19.35;57.88;100908.19;2002214;88;21101;-85
2022/10/07 13:49:02;;;;;;;13.18;5.30;;;;;;;19.35;58.22;100904.16;2004839;88;21128;-80
2022/10/07 13:52:07;;;;;;;10.75;5.40;;;;;;;19.19;58.11;100895.95;2002200;88;21065;-83
2022/10/07 13:55:33;;;;;;;10.13;5.45;;;;;;;19.04;58.44;100890.75;2006971;88;21021;-82
2022/10/07 13:58:36;;;;;;;10.50;4.95;;;;;;;19.05;58.97;100885.68;2000762;88;21007;-81
2022/10/07 14:01:39;;;;;;;8.25;5.62;;;;;;;19.00;58.36;100878.73;1973942;88;22462;-83
2022/10/07 14:05:04;;;;;;;7.37;5.00;;;;;;;18.91;58.74;100865.99;2002845;88;21082;-84
2022/10/07 14:08:16;;;;;;;12.70;5.83;;;;;;;18.78;59.05;100867.30;2005161;88;21041;-83
2022/10/07 14:11:20;;;;;;;9.25;5.78;;;;;;;18.67;59.02;100863.81;2003758;87;21532;-83
2022/10/07 14:14:38;;;;;;;10.03;5.60;;;;;;;18.62;59.63;100852.87;2005534;87;21347;-80
2022/10/07 14:17:46;;;;;;;9.65;5.35;;;;;;;18.65;59.79;100850.59;2007243;87;21063;-81
2022/10/07 14:21:08;;;;;;;13.18;6.53;;;;;;;18.64;60.19;100845.41;2004974;87;21050;-85
2022/10/07 14:24:10;;;;;;;11.33;6.25;;;;;;;18.72;60.16;100836.64;2010902;87;22350;-81
2022/10/07 14:27:51;;;;;;;15.38;6.50;;;;;;;18.81;60.27;100838.17;2010325;87;21011;-81
2022/10/07 14:38:28;;;;;;;10.75;6.10;;;;;;;18.81;60.62;100825.25;2007732;87;21075;-85
2022/10/07 14:41:31;;;;;;;12.95;5.87;;;;;;;18.69;60.97;100814.20;2008756;87;21029;-83
2022/10/07 14:44:32;;;;;;;12.35;5.75;;;;;;;18.63;61.18;100816.37;2006322;87;21034;-84